Deep Cygnus — 3ERL4 — position and weather

sailwx.info

Track history (hours):
 
Tides and Currents Weather Stations Pressure Air Temp Water Temp Dewpoint Dewpoint Depression Visibility Wind Speed Wind Dir Waves Ship Positions

Deep Cygnus

Last reported at 2017-Sep-21 04:48 UTC. Time now 2017-Sep-21 16:15 UTC.
Position N 32°23' E 032°33'.

Length 122 m; draft 6.2 m.

Type: Dredging. MMSI: 370092000.

Date/timePositionNaut miles runAvg speedWind from/ knotsBaromVisibWave heightAir tempDewpointWater temp
2017-Sep-21 04:48N 32°23' E 032°33'6 6.6
2017-Sep-21 03:52N 32°17' E 032°31'0 0.1
2017-Sep-21 03:27N 32°17' E 032°31'0 0.0
2017-Sep-21 03:00N 32°17' E 032°31'  
2017-Sep-14 16:20N 32°59' E 032°24'0 0.1
2017-Sep-14 15:49N 32°59' E 032°24'0 0.1
2017-Sep-14 15:30N 32°59' E 032°24'0 0.0
2017-Sep-14 15:00N 32°59' E 032°24'0 0.0
2017-Sep-14 14:30N 32°59' E 032°24'0 0.0
2017-Sep-14 14:01N 32°59' E 032°24'1 0.3
2017-Sep-14 11:39N 32°60' E 032°23'1 1.8
2017-Sep-14 11:11N 33°00' E 032°23'0 0.2
2017-Sep-14 10:59N 33°01' E 032°23'0 0.0
2017-Sep-14 10:30N 33°01' E 032°23'0 0.0
2017-Sep-14 10:00N 33°01' E 032°23'0 0.0
2017-Sep-14 03:59N 33°01' E 032°23'0 0.0
2017-Sep-14 03:30N 33°01' E 032°23'0 0.0
2017-Sep-14 03:00N 33°01' E 032°23'0 0.0
2017-Sep-14 02:23N 33°01' E 032°23'0 0.0
2017-Sep-14 02:00N 33°01' E 032°23'0 0.6
2017-Sep-14 01:30N 33°00' E 032°23'0 0.2
2017-Sep-14 01:00N 33°00' E 032°22'0 0.1
2017-Sep-14 00:30N 33°00' E 032°22'0 0.0
2017-Sep-13 23:20N 33°00' E 032°22'0 0.0
2017-Sep-13 22:56N 33°00' E 032°22'0 0.0
2017-Sep-13 22:30N 33°00' E 032°22'0 0.1
2017-Sep-13 22:00N 33°00' E 032°22'0 0.0
2017-Sep-13 21:30N 33°00' E 032°22'1 1.5
2017-Sep-13 21:01N 33°01' E 032°22'0 0.0
2017-Sep-13 20:30N 33°01' E 032°22'0 0.1
2017-Sep-13 20:00N 33°01' E 032°22'0 0.0
2017-Sep-13 19:30N 33°01' E 032°22'0 0.0
2017-Sep-13 19:00N 33°01' E 032°22'0 0.0
2017-Sep-13 18:30N 33°01' E 032°22'0 0.1
2017-Sep-13 18:01N 33°01' E 032°22'0 0.1
2017-Sep-13 17:30N 33°01' E 032°22'0 0.0
2017-Sep-13 17:00N 33°01' E 032°22'0 0.2
2017-Sep-13 16:30N 33°01' E 032°22'0 0.0
2017-Sep-13 15:58N 33°01' E 032°22'0 0.0
2017-Sep-13 15:30N 33°01' E 032°22'0 0.2
2017-Sep-13 15:00N 33°01' E 032°22'1 0.4
2017-Sep-13 11:54N 32°60' E 032°23'1 1.5
2017-Sep-13 11:19N 32°59' E 032°24'0 0.0
2017-Sep-13 10:58N 32°59' E 032°24'0 0.1
2017-Sep-13 10:30N 32°59' E 032°24'0 0.0
2017-Sep-13 10:00N 32°59' E 032°24'0 0.0
2017-Sep-13 09:30N 32°59' E 032°24'0 0.0
2017-Sep-13 09:01N 32°59' E 032°24'0 0.0
2017-Sep-13 08:29N 32°59' E 032°24'0 0.0
2017-Sep-13 06:15N 32°59' E 032°24'0 0.1
2017-Sep-13 05:58N 32°59' E 032°24'1 2.4
2017-Sep-13 05:26N 33°00' E 032°23'0 0.1
2017-Sep-13 04:56N 33°00' E 032°23'1 2.0
2017-Sep-13 04:26N 33°01' E 032°22'0 0.0
2017-Sep-13 03:59N 33°01' E 032°22'0 0.0
2017-Sep-13 03:31N 33°01' E 032°22'0 0.0
2017-Sep-13 03:01N 33°01' E 032°22'0 0.0
2017-Sep-13 02:30N 33°01' E 032°22'0 0.0
2017-Sep-13 02:00N 33°01' E 032°22'0 0.0
2017-Sep-13 01:31N 33°01' E 032°22'0 0.0
2017-Sep-13 01:00N 33°01' E 032°22'0 0.7
2017-Sep-13 00:23N 33°01' E 032°22'0 0.7
2017-Sep-13 00:00N 33°00' E 032°22'0 0.0
2017-Sep-12 20:13N 33°00' E 032°22'0 0.0
2017-Sep-12 20:01N 33°00' E 032°22'0 0.0
2017-Sep-12 19:26N 33°00' E 032°22'0 0.0
2017-Sep-12 19:01N 33°00' E 032°22'0 0.0
2017-Sep-12 18:31N 33°00' E 032°22'0 0.1
2017-Sep-12 18:01N 33°00' E 032°22'0 0.0
2017-Sep-12 16:13N 33°00' E 032°22'0 0.0
2017-Sep-12 16:00N 33°00' E 032°22'0 0.0
2017-Sep-12 15:25N 33°00' E 032°22'0 0.1
2017-Sep-12 15:00N 33°00' E 032°22'1 1.2
2017-Sep-12 14:29N 32°60' E 032°22'0 0.0
2017-Sep-12 14:01N 32°60' E 032°22'0 0.0
2017-Sep-12 13:31N 32°60' E 032°22'0 0.0
2017-Sep-12 13:01N 32°60' E 032°22'0 0.0
2017-Sep-12 12:31N 32°60' E 032°22'0 0.0
2017-Sep-12 12:01N 32°60' E 032°22'0 0.0
2017-Sep-12 11:31N 32°60' E 032°22'0 0.0
2017-Sep-12 11:01N 32°60' E 032°22'0 0.1
2017-Sep-12 10:28N 32°60' E 032°22'0 0.0
2017-Sep-12 10:01N 32°60' E 032°22'0 0.0
2017-Sep-12 09:27N 32°60' E 032°22'0 0.1
2017-Sep-12 09:00N 32°60' E 032°22'0 0.0
2017-Sep-12 08:31N 32°60' E 032°22'0 0.0
2017-Sep-12 08:01N 32°60' E 032°22'0 0.0
2017-Sep-12 07:30N 32°60' E 032°22'0 0.1
2017-Sep-12 07:01N 32°60' E 032°22'0 0.0
2017-Sep-12 06:30N 32°60' E 032°22'0 0.0
2017-Sep-12 06:00N 32°60' E 032°22'0 0.1
2017-Sep-12 05:28N 32°60' E 032°22'0 0.0
2017-Sep-12 05:01N 32°60' E 032°22'0 0.0
2017-Sep-12 04:30N 32°60' E 032°22'0 0.0
2017-Sep-12 04:01N 32°60' E 032°22'0 0.0
2017-Sep-12 03:30N 32°60' E 032°22'0 0.0
2017-Sep-12 02:50N 32°60' E 032°22'0 0.0
2017-Sep-12 02:29N 32°60' E 032°22'0 0.0
2017-Sep-12 02:00N 32°60' E 032°22'0 0.0
2017-Sep-12 01:31N 32°60' E 032°22'0 0.0
2017-Sep-12 01:01N 32°60' E 032°22'1 1.5
2017-Sep-12 00:26N 33°01' E 032°22'0 0.6
2017-Sep-12 00:00N 33°01' E 032°22'0 0.1
2017-Sep-11 23:04N 33°01' E 032°22'0 0.0
2017-Sep-11 22:50N 33°01' E 032°22'0 0.0
2017-Sep-11 22:31N 33°01' E 032°22'0 0.0
2017-Sep-11 21:15N 33°01' E 032°22'0 0.1
2017-Sep-11 20:56N 33°01' E 032°22'0 0.1
2017-Sep-11 20:26N 33°01' E 032°22'1 1.6
2017-Sep-11 19:59N 33°00' E 032°22'0 0.3
2017-Sep-11 18:34N 32°60' E 032°22'0 0.0
2017-Sep-11 18:30N 32°60' E 032°22'0 0.1
2017-Sep-11 18:00N 32°60' E 032°22'0 0.0
2017-Sep-11 17:29N 32°60' E 032°22'0 0.1
2017-Sep-11 17:00N 32°60' E 032°22'0 0.1
2017-Sep-11 16:21N 32°60' E 032°22'0 0.0
2017-Sep-11 16:00N 32°60' E 032°22'1 1.5
2017-Sep-11 15:08N 32°60' E 032°21'0 0.0
2017-Sep-11 14:34N 32°60' E 032°21'0 0.0
2017-Sep-11 14:30N 32°60' E 032°21'0 0.0
2017-Sep-11 14:01N 32°60' E 032°21'0 0.0
2017-Sep-11 13:09N 32°60' E 032°21'0 0.0
2017-Sep-11 13:00N 32°60' E 032°21'1 1.3
2017-Sep-11 12:29N 32°59' E 032°21'0 0.1
2017-Sep-11 12:00N 32°59' E 032°21'1 1.1
2017-Sep-11 11:30N 32°60' E 032°21'0 0.3
2017-Sep-11 11:00N 33°00' E 032°21'0 0.0
2017-Sep-11 10:31N 33°00' E 032°21'0 0.1
2017-Sep-11 10:00N 33°00' E 032°21'0 0.1
2017-Sep-11 09:30N 33°00' E 032°21'0 0.1
2017-Sep-11 09:00N 33°00' E 032°21'0 0.0
2017-Sep-11 08:29N 33°00' E 032°21'0 0.0
2017-Sep-11 08:01N 33°00' E 032°21'0 0.0
2017-Sep-11 07:30N 33°00' E 032°21'0 0.0
2017-Sep-11 07:00N 33°00' E 032°21'0 0.0
2017-Sep-11 06:27N 33°00' E 032°21'0 0.0
2017-Sep-11 05:52N 33°00' E 032°21'0 0.0
2017-Sep-11 05:31N 33°00' E 032°21'0 0.0
2017-Sep-11 05:00N 33°00' E 032°21'  
Track history (hours):
 
Tides and Currents Weather Stations Pressure Air Temp Water Temp Dewpoint Dewpoint Depression Visibility Wind Speed Wind Dir Waves Ship Positions

Deep Cygnus

Last reported at 2017-Sep-21 04:48 UTC. Time now 2017-Sep-21 16:15 UTC.
Position N 32°23' E 032°33'.

Length 122 m; draft 6.2 m.

Type: Dredging. MMSI: 370092000.

Date/timePositionNaut miles runAvg speedWind from/ knotsBaromVisibWave heightAir tempDewpointWater temp
2017-Sep-21 04:48N 32°23' E 032°33'6 6.6
2017-Sep-21 03:52N 32°17' E 032°31'0 0.1
2017-Sep-21 03:27N 32°17' E 032°31'0 0.0
2017-Sep-21 03:00N 32°17' E 032°31'  
2017-Sep-14 16:20N 32°59' E 032°24'0 0.1
2017-Sep-14 15:49N 32°59' E 032°24'0 0.1
2017-Sep-14 15:30N 32°59' E 032°24'0 0.0
2017-Sep-14 15:00N 32°59' E 032°24'0 0.0
2017-Sep-14 14:30N 32°59' E 032°24'0 0.0
2017-Sep-14 14:01N 32°59' E 032°24'1 0.3
2017-Sep-14 11:39N 32°60' E 032°23'1 1.8
2017-Sep-14 11:11N 33°00' E 032°23'0 0.2
2017-Sep-14 10:59N 33°01' E 032°23'0 0.0
2017-Sep-14 10:30N 33°01' E 032°23'0 0.0
2017-Sep-14 10:00N 33°01' E 032°23'0 0.0
2017-Sep-14 03:59N 33°01' E 032°23'0 0.0
2017-Sep-14 03:30N 33°01' E 032°23'0 0.0
2017-Sep-14 03:00N 33°01' E 032°23'0 0.0
2017-Sep-14 02:23N 33°01' E 032°23'0 0.0
2017-Sep-14 02:00N 33°01' E 032°23'0 0.6
2017-Sep-14 01:30N 33°00' E 032°23'0 0.2
2017-Sep-14 01:00N 33°00' E 032°22'0 0.1
2017-Sep-14 00:30N 33°00' E 032°22'0 0.0
2017-Sep-13 23:20N 33°00' E 032°22'0 0.0
2017-Sep-13 22:56N 33°00' E 032°22'0 0.0
2017-Sep-13 22:30N 33°00' E 032°22'0 0.1
2017-Sep-13 22:00N 33°00' E 032°22'0 0.0
2017-Sep-13 21:30N 33°00' E 032°22'1 1.5
2017-Sep-13 21:01N 33°01' E 032°22'0 0.0
2017-Sep-13 20:30N 33°01' E 032°22'0 0.1
2017-Sep-13 20:00N 33°01' E 032°22'0 0.0
2017-Sep-13 19:30N 33°01' E 032°22'0 0.0
2017-Sep-13 19:00N 33°01' E 032°22'0 0.0
2017-Sep-13 18:30N 33°01' E 032°22'0 0.1
2017-Sep-13 18:01N 33°01' E 032°22'0 0.1
2017-Sep-13 17:30N 33°01' E 032°22'0 0.0
2017-Sep-13 17:00N 33°01' E 032°22'0 0.2
2017-Sep-13 16:30N 33°01' E 032°22'0 0.0
2017-Sep-13 15:58N 33°01' E 032°22'0 0.0
2017-Sep-13 15:30N 33°01' E 032°22'0 0.2
2017-Sep-13 15:00N 33°01' E 032°22'1 0.4
2017-Sep-13 11:54N 32°60' E 032°23'1 1.5
2017-Sep-13 11:19N 32°59' E 032°24'0 0.0
2017-Sep-13 10:58N 32°59' E 032°24'0 0.1
2017-Sep-13 10:30N 32°59' E 032°24'0 0.0
2017-Sep-13 10:00N 32°59' E 032°24'0 0.0
2017-Sep-13 09:30N 32°59' E 032°24'0 0.0
2017-Sep-13 09:01N 32°59' E 032°24'0 0.0
2017-Sep-13 08:29N 32°59' E 032°24'0 0.0
2017-Sep-13 06:15N 32°59' E 032°24'0 0.1
2017-Sep-13 05:58N 32°59' E 032°24'1 2.4
2017-Sep-13 05:26N 33°00' E 032°23'0 0.1
2017-Sep-13 04:56N 33°00' E 032°23'1 2.0
2017-Sep-13 04:26N 33°01' E 032°22'0 0.0
2017-Sep-13 03:59N 33°01' E 032°22'0 0.0
2017-Sep-13 03:31N 33°01' E 032°22'0 0.0
2017-Sep-13 03:01N 33°01' E 032°22'0 0.0
2017-Sep-13 02:30N 33°01' E 032°22'0 0.0
2017-Sep-13 02:00N 33°01' E 032°22'0 0.0
2017-Sep-13 01:31N 33°01' E 032°22'0 0.0
2017-Sep-13 01:00N 33°01' E 032°22'0 0.7
2017-Sep-13 00:23N 33°01' E 032°22'0 0.7
2017-Sep-13 00:00N 33°00' E 032°22'0 0.0
2017-Sep-12 20:13N 33°00' E 032°22'0 0.0
2017-Sep-12 20:01N 33°00' E 032°22'0 0.0
2017-Sep-12 19:26N 33°00' E 032°22'0 0.0
2017-Sep-12 19:01N 33°00' E 032°22'0 0.0
2017-Sep-12 18:31N 33°00' E 032°22'0 0.1
2017-Sep-12 18:01N 33°00' E 032°22'0 0.0
2017-Sep-12 16:13N 33°00' E 032°22'0 0.0
2017-Sep-12 16:00N 33°00' E 032°22'0 0.0
2017-Sep-12 15:25N 33°00' E 032°22'0 0.1
2017-Sep-12 15:00N 33°00' E 032°22'1 1.2
2017-Sep-12 14:29N 32°60' E 032°22'0 0.0
2017-Sep-12 14:01N 32°60' E 032°22'0 0.0
2017-Sep-12 13:31N 32°60' E 032°22'0 0.0
2017-Sep-12 13:01N 32°60' E 032°22'0 0.0
2017-Sep-12 12:31N 32°60' E 032°22'0 0.0
2017-Sep-12 12:01N 32°60' E 032°22'0 0.0
2017-Sep-12 11:31N 32°60' E 032°22'0 0.0
2017-Sep-12 11:01N 32°60' E 032°22'0 0.1
2017-Sep-12 10:28N 32°60' E 032°22'0 0.0
2017-Sep-12 10:01N 32°60' E 032°22'0 0.0
2017-Sep-12 09:27N 32°60' E 032°22'0 0.1
2017-Sep-12 09:00N 32°60' E 032°22'0 0.0
2017-Sep-12 08:31N 32°60' E 032°22'0 0.0
2017-Sep-12 08:01N 32°60' E 032°22'0 0.0
2017-Sep-12 07:30N 32°60' E 032°22'0 0.1
2017-Sep-12 07:01N 32°60' E 032°22'0 0.0
2017-Sep-12 06:30N 32°60' E 032°22'0 0.0
2017-Sep-12 06:00N 32°60' E 032°22'0 0.1
2017-Sep-12 05:28N 32°60' E 032°22'0 0.0
2017-Sep-12 05:01N 32°60' E 032°22'0 0.0
2017-Sep-12 04:30N 32°60' E 032°22'0 0.0
2017-Sep-12 04:01N 32°60' E 032°22'0 0.0
2017-Sep-12 03:30N 32°60' E 032°22'0 0.0
2017-Sep-12 02:50N 32°60' E 032°22'0 0.0
2017-Sep-12 02:29N 32°60' E 032°22'0 0.0
2017-Sep-12 02:00N 32°60' E 032°22'0 0.0
2017-Sep-12 01:31N 32°60' E 032°22'0 0.0
2017-Sep-12 01:01N 32°60' E 032°22'1 1.5
2017-Sep-12 00:26N 33°01' E 032°22'0 0.6
2017-Sep-12 00:00N 33°01' E 032°22'0 0.1
2017-Sep-11 23:04N 33°01' E 032°22'0 0.0
2017-Sep-11 22:50N 33°01' E 032°22'0 0.0
2017-Sep-11 22:31N 33°01' E 032°22'0 0.0
2017-Sep-11 21:15N 33°01' E 032°22'0 0.1
2017-Sep-11 20:56N 33°01' E 032°22'0 0.1
2017-Sep-11 20:26N 33°01' E 032°22'1 1.6
2017-Sep-11 19:59N 33°00' E 032°22'0 0.3
2017-Sep-11 18:34N 32°60' E 032°22'0 0.0
2017-Sep-11 18:30N 32°60' E 032°22'0 0.1
2017-Sep-11 18:00N 32°60' E 032°22'0 0.0
2017-Sep-11 17:29N 32°60' E 032°22'0 0.1
2017-Sep-11 17:00N 32°60' E 032°22'0 0.1
2017-Sep-11 16:21N 32°60' E 032°22'0 0.0
2017-Sep-11 16:00N 32°60' E 032°22'1 1.5
2017-Sep-11 15:08N 32°60' E 032°21'0 0.0
2017-Sep-11 14:34N 32°60' E 032°21'0 0.0
2017-Sep-11 14:30N 32°60' E 032°21'0 0.0
2017-Sep-11 14:01N 32°60' E 032°21'0 0.0
2017-Sep-11 13:09N 32°60' E 032°21'0 0.0
2017-Sep-11 13:00N 32°60' E 032°21'1 1.3
2017-Sep-11 12:29N 32°59' E 032°21'0 0.1
2017-Sep-11 12:00N 32°59' E 032°21'1 1.1
2017-Sep-11 11:30N 32°60' E 032°21'0 0.3
2017-Sep-11 11:00N 33°00' E 032°21'0 0.0
2017-Sep-11 10:31N 33°00' E 032°21'0 0.1
2017-Sep-11 10:00N 33°00' E 032°21'0 0.1
2017-Sep-11 09:30N 33°00' E 032°21'0 0.1
2017-Sep-11 09:00N 33°00' E 032°21'0 0.0
2017-Sep-11 08:29N 33°00' E 032°21'0 0.0
2017-Sep-11 08:01N 33°00' E 032°21'0 0.0
2017-Sep-11 07:30N 33°00' E 032°21'0 0.0
2017-Sep-11 07:00N 33°00' E 032°21'0 0.0
2017-Sep-11 06:27N 33°00' E 032°21'0 0.0
2017-Sep-11 05:52N 33°00' E 032°21'0 0.0
2017-Sep-11 05:31N 33°00' E 032°21'0 0.0
2017-Sep-11 05:00N 33°00' E 032°21'  

Dump ship's entire track history